createdAt,value
2022-09-07T00:01:25.951Z,3.45
2022-09-07T00:05:28.956Z,3.83
2022-09-07T00:09:31.679Z,3.35
2022-09-07T00:13:37.934Z,3.63
2022-09-07T00:17:42.085Z,3.40
2022-09-07T00:21:46.421Z,3.58
2022-09-07T00:25:53.903Z,4.00
2022-09-07T00:29:58.246Z,3.35
2022-09-07T00:34:03.121Z,3.58
2022-09-07T00:38:05.881Z,3.60
2022-09-07T00:42:08.818Z,3.50
2022-09-07T00:46:16.584Z,3.50
2022-09-07T00:50:23.006Z,3.80
2022-09-07T00:54:29.302Z,3.92
2022-09-07T00:58:33.556Z,3.95
2022-09-07T01:02:38.159Z,3.50
2022-09-07T01:06:42.428Z,3.95
2022-09-07T01:10:46.770Z,4.13
2022-09-07T01:14:52.702Z,3.97
2022-09-07T01:19:05.965Z,4.00
2022-09-07T01:23:44.348Z,3.50
2022-09-07T01:28:07.822Z,3.20
2022-09-07T01:32:19.678Z,4.43
2022-09-07T01:36:33.520Z,3.85
2022-09-07T01:40:44.944Z,2.72
2022-09-07T01:44:53.474Z,2.47
2022-09-07T01:48:59.692Z,2.50
2022-09-07T01:53:07.417Z,1.95
2022-09-07T01:57:13.896Z,1.27
2022-09-07T02:01:23.989Z,1.35
2022-09-07T02:05:31.542Z,1.70
2022-09-07T02:09:38.379Z,1.48
2022-09-07T02:13:43.871Z,2.00
2022-09-07T02:17:53.280Z,1.70
2022-09-07T02:22:01.550Z,1.58
2022-09-07T02:26:09.323Z,2.05
2022-09-07T02:30:13.360Z,2.15
2022-09-07T02:34:17.484Z,1.85
2022-09-07T02:38:20.642Z,2.40
2022-09-07T02:42:23.482Z,2.28
2022-09-07T02:46:45.644Z,2.50
2022-09-07T02:51:04.289Z,2.55
2022-09-07T02:55:16.667Z,2.45
2022-09-07T02:59:33.379Z,2.60
2022-09-07T03:03:44.717Z,2.30
2022-09-07T03:07:55.478Z,3.00
2022-09-07T03:11:58.549Z,2.83
2022-09-07T03:16:01.549Z,2.70
2022-09-07T03:20:04.955Z,2.53
2022-09-07T03:24:09.493Z,2.22
2022-09-07T03:28:12.525Z,2.42
2022-09-07T03:32:15.280Z,2.60
2022-09-07T03:36:18.061Z,2.67
2022-09-07T03:40:22.226Z,2.20
2022-09-07T03:44:24.998Z,2.70
2022-09-07T03:48:27.900Z,2.50
2022-09-07T03:52:30.793Z,2.50
2022-09-07T03:56:34.929Z,2.83
2022-09-07T04:00:42.009Z,3.28
2022-09-07T04:04:46.043Z,4.95
2022-09-07T04:08:48.792Z,2.58
2022-09-07T04:12:52.882Z,2.50
2022-09-07T04:16:55.775Z,2.33
2022-09-07T04:21:00.025Z,2.40
2022-09-07T04:25:02.844Z,2.67
2022-09-07T04:29:08.655Z,2.85
2022-09-07T04:33:12.191Z,2.67
2022-09-07T04:37:14.957Z,3.03
2022-09-07T04:41:19.615Z,2.15
2022-09-07T04:45:23.796Z,2.55
2022-09-07T04:49:26.626Z,2.88
2022-09-07T04:53:29.747Z,3.40
2022-09-07T04:57:32.672Z,1.92
2022-09-07T05:01:36.825Z,2.60
2022-09-07T05:05:39.841Z,2.67
2022-09-07T05:09:42.904Z,2.50
2022-09-07T05:13:45.710Z,2.35
2022-09-07T05:17:50.106Z,2.30
2022-09-07T05:21:52.854Z,2.45
2022-09-07T05:25:55.585Z,2.58
2022-09-07T05:38:32.391Z,2.15
2022-09-07T05:42:36.319Z,2.03
2022-09-07T05:46:39.090Z,2.10
2022-09-07T05:50:51.011Z,1.80
2022-09-07T05:54:59.244Z,2.00
2022-09-07T05:59:10.620Z,2.10
2022-09-07T06:03:13.560Z,1.98
2022-09-07T06:07:22.135Z,2.10
2022-09-07T06:11:27.263Z,1.90
2022-09-07T06:15:30.170Z,1.70
2022-09-07T06:19:32.905Z,2.00
2022-09-07T06:23:38.816Z,2.03
2022-09-07T06:27:41.570Z,1.55
2022-09-07T06:36:09.504Z,1.80
2022-09-07T06:40:13.967Z,1.85
2022-09-07T06:44:16.814Z,1.60
2022-09-07T06:48:19.560Z,1.90
2022-09-07T06:52:22.567Z,2.42
2022-09-07T06:56:27.349Z,2.58
2022-09-07T07:00:30.106Z,2.00
2022-09-07T07:04:37.794Z,1.83
2022-09-07T07:08:43.498Z,1.90
2022-09-07T07:12:47.574Z,1.88
2022-09-07T07:16:50.334Z,2.30
2022-09-07T07:20:53.142Z,2.03
2022-09-07T07:24:55.898Z,2.35
2022-09-07T07:33:08.068Z,2.40
2022-09-07T07:37:10.818Z,2.50
2022-09-07T07:54:19.712Z,1.98
2022-09-07T07:58:22.553Z,1.98
2022-09-07T08:02:26.635Z,1.95
2022-09-07T08:06:29.738Z,2.05
2022-09-07T08:10:32.506Z,1.90
2022-09-07T08:14:36.538Z,2.20
2022-09-07T08:18:41.004Z,2.10
2022-09-07T08:22:43.989Z,1.63
2022-09-07T08:26:46.711Z,1.73
2022-09-07T08:30:49.430Z,1.60
2022-09-07T08:34:53.695Z,1.63
2022-09-07T08:38:56.423Z,1.23
2022-09-07T08:43:07.580Z,1.20
2022-09-07T08:47:21.890Z,1.15
2022-09-07T08:51:34.849Z,1.05
2022-09-07T08:55:42.056Z,1.10
2022-09-07T08:59:50.057Z,1.75
2022-09-07T09:08:28.524Z,1.10
2022-09-07T09:12:44.877Z,0.93
2022-09-07T09:16:52.984Z,1.20
2022-09-07T09:20:57.711Z,1.42
2022-09-07T09:25:15.581Z,1.38
2022-09-07T09:29:21.073Z,1.25
2022-09-07T09:33:25.862Z,1.27
2022-09-07T09:37:35.901Z,1.42
2022-09-07T09:41:40.475Z,1.75
2022-09-07T09:54:44.358Z,1.58
2022-09-07T10:07:52.838Z,1.77
2022-09-07T10:12:08.284Z,1.30
2022-09-07T10:16:13.087Z,1.30
2022-09-07T10:20:32.192Z,1.67
2022-09-07T10:24:39.466Z,1.20
2022-09-07T10:33:12.130Z,1.15
2022-09-07T10:37:25.158Z,1.02
2022-09-07T10:41:41.876Z,1.00
2022-09-07T10:46:03.428Z,1.70
2022-09-07T10:50:25.375Z,1.52
2022-09-07T10:54:37.090Z,1.30
2022-09-07T10:59:09.149Z,1.52
2022-09-07T11:03:28.051Z,1.20
2022-09-07T11:07:55.203Z,1.25
2022-09-07T11:12:04.272Z,1.20
2022-09-07T11:16:50.416Z,1.40
2022-09-07T11:20:40.292Z,1.20
2022-09-07T11:25:29.080Z,1.17
2022-09-07T11:29:34.710Z,1.20
2022-09-07T11:34:23.789Z,1.40
2022-09-07T11:38:15.334Z,1.40
2022-09-07T11:46:49.928Z,1.50
2022-09-07T11:50:58.499Z,1.80
2022-09-07T11:55:05.324Z,1.10
2022-09-07T11:59:23.709Z,1.00
2022-09-07T12:03:51.652Z,1.77
2022-09-07T12:08:17.190Z,1.17
2022-09-07T12:12:48.908Z,1.15
2022-09-07T12:17:15.872Z,1.73
2022-09-07T12:21:43.697Z,3.05
2022-09-07T12:25:48.450Z,2.45
2022-09-07T12:30:12.482Z,2.80
2022-09-07T12:35:01.196Z,2.20
2022-09-07T12:39:24.666Z,2.30
2022-09-07T12:44:08.558Z,2.90
2022-09-07T12:48:23.796Z,2.97
2022-09-07T12:52:46.634Z,2.40
2022-09-07T13:01:31.566Z,2.50
2022-09-07T13:05:47.032Z,2.50
2022-09-07T13:09:57.346Z,2.25
2022-09-07T13:14:08.487Z,1.80
2022-09-07T13:18:37.383Z,1.80
2022-09-07T13:22:56.933Z,1.80
2022-09-07T13:27:02.906Z,1.77
2022-09-07T13:31:22.049Z,1.73
2022-09-07T13:35:26.289Z,1.60
2022-09-07T13:39:39.810Z,1.90
2022-09-07T13:43:48.373Z,1.65
2022-09-07T13:47:59.605Z,2.00
2022-09-07T13:52:08.967Z,2.00
2022-09-07T13:56:19.998Z,2.00
2022-09-07T14:00:22.838Z,1.80
2022-09-07T14:04:28.384Z,2.90
2022-09-07T14:08:31.306Z,3.00
2022-09-07T14:12:43.393Z,2.53
2022-09-07T14:16:54.612Z,3.00
2022-09-07T14:20:58.976Z,2.50
2022-09-07T14:25:03.471Z,3.17
2022-09-07T14:29:21.669Z,2.47
2022-09-07T14:33:24.631Z,2.80
2022-09-07T14:37:29.550Z,2.70
2022-09-07T14:41:34.712Z,2.95
2022-09-07T14:45:37.991Z,2.60
2022-09-07T14:49:40.906Z,2.05
2022-09-07T14:53:50.422Z,4.47
2022-09-07T14:58:23.078Z,3.75
2022-09-07T15:02:33.664Z,4.18
2022-09-07T15:15:33.215Z,4.55
2022-09-07T15:19:36.010Z,4.72
2022-09-07T15:23:39.915Z,4.00
2022-09-07T15:27:44.008Z,5.55
2022-09-07T15:31:57.013Z,5.50
2022-09-07T15:36:04.655Z,4.15
2022-09-07T15:40:16.488Z,4.53
2022-09-07T15:44:25.211Z,4.10
2022-09-07T15:48:29.438Z,4.45
2022-09-07T15:52:32.616Z,4.28
2022-09-07T15:56:36.873Z,4.25
2022-09-07T16:00:41.220Z,3.70
2022-09-07T16:04:44.523Z,4.60
2022-09-07T16:08:51.477Z,4.10
2022-09-07T16:13:03.105Z,4.30
2022-09-07T16:17:35.636Z,3.95
2022-09-07T16:21:41.027Z,4.40
2022-09-07T16:25:59.034Z,4.45
2022-09-07T16:30:05.198Z,4.40
2022-09-07T16:34:09.299Z,4.30
2022-09-07T16:42:37.463Z,4.00
2022-09-07T16:46:40.394Z,4.20
2022-09-07T16:50:58.944Z,5.50
2022-09-07T16:55:05.147Z,5.65
2022-09-07T16:59:09.423Z,6.38
2022-09-07T17:03:13.364Z,6.43
2022-09-07T17:07:17.460Z,6.60
2022-09-07T17:11:22.318Z,7.20
2022-09-07T17:15:27.446Z,6.72
2022-09-07T17:19:30.521Z,6.40
2022-09-07T17:23:44.524Z,5.93
2022-09-07T17:27:50.725Z,6.18
2022-09-07T17:36:18.426Z,8.13
2022-09-07T17:40:23.479Z,7.35
2022-09-07T17:44:29.822Z,6.80
2022-09-07T17:48:37.349Z,7.20
2022-09-07T17:52:41.228Z,6.82
2022-09-07T17:56:49.706Z,7.28
2022-09-07T18:00:53.147Z,7.40
2022-09-07T18:04:56.092Z,7.35
2022-09-07T18:09:02.877Z,7.80
2022-09-07T18:13:07.257Z,6.68
2022-09-07T18:17:10.157Z,6.70
2022-09-07T18:21:15.304Z,7.30
2022-09-07T18:25:18.349Z,6.72
2022-09-07T18:29:34.039Z,5.60
2022-09-07T18:33:37.787Z,6.82
2022-09-07T18:37:40.556Z,6.43
2022-09-07T18:41:43.354Z,6.15
2022-09-07T18:45:47.441Z,5.95
2022-09-07T18:49:50.726Z,6.35
2022-09-07T18:53:53.470Z,6.47
2022-09-07T18:57:56.229Z,6.80
2022-09-07T19:02:04.470Z,5.82
2022-09-07T19:06:12.804Z,5.90
2022-09-07T19:10:16.718Z,5.80
2022-09-07T19:14:19.683Z,6.38
2022-09-07T19:18:23.773Z,6.07
2022-09-07T19:22:27.224Z,6.40
2022-09-07T19:26:32.931Z,6.18
2022-09-07T19:30:36.272Z,6.85
2022-09-07T19:34:42.341Z,6.15
2022-09-07T19:38:45.517Z,6.30
2022-09-07T19:42:48.205Z,6.32
2022-09-07T19:46:51.174Z,6.75
2022-09-07T19:50:55.389Z,7.13
2022-09-07T19:55:00.302Z,6.50
2022-09-07T19:59:03.930Z,6.65
2022-09-07T20:03:10.845Z,6.95
2022-09-07T20:07:15.227Z,7.15
2022-09-07T20:11:18.894Z,7.45
2022-09-07T20:15:21.649Z,7.75
2022-09-07T20:19:24.543Z,23.27
2022-09-07T20:23:28.629Z,25.27
2022-09-07T20:27:32.111Z,10.05
2022-09-07T20:31:34.968Z,7.88
2022-09-07T20:35:37.742Z,8.20
2022-09-07T20:39:41.908Z,8.10
2022-09-07T20:43:44.779Z,8.63
2022-09-07T20:47:47.489Z,7.63
2022-09-07T20:51:50.226Z,8.98
2022-09-07T20:56:00.851Z,8.70
2022-09-07T21:00:04.108Z,8.68
2022-09-07T21:04:06.808Z,8.40
2022-09-07T21:08:09.650Z,9.50
2022-09-07T21:12:13.716Z,8.93
2022-09-07T21:16:17.506Z,9.30
2022-09-07T21:20:20.205Z,9.70
2022-09-07T21:24:24.536Z,9.07
2022-09-07T21:28:29.426Z,9.00
2022-09-07T21:32:32.361Z,9.90
2022-09-07T21:36:35.127Z,9.10
2022-09-07T21:40:41.350Z,9.57
2022-09-07T21:44:47.080Z,10.73
2022-09-07T21:48:49.815Z,10.15
2022-09-07T21:52:52.535Z,11.00
2022-09-07T21:56:55.217Z,9.32
2022-09-07T22:01:01.137Z,9.18
2022-09-07T22:05:04.068Z,7.95
2022-09-07T22:09:06.838Z,8.25
2022-09-07T22:13:09.565Z,7.75
2022-09-07T22:17:14.151Z,9.45
2022-09-07T22:21:19.445Z,8.15
2022-09-07T22:25:22.180Z,8.95
2022-09-07T22:29:24.947Z,8.35
2022-09-07T22:33:28.997Z,8.20
2022-09-07T22:37:32.178Z,8.73
2022-09-07T22:41:36.719Z,8.00
2022-09-07T22:45:39.515Z,7.93
2022-09-07T22:49:43.603Z,8.13
2022-09-07T22:53:46.372Z,8.00
2022-09-07T22:57:49.079Z,7.57
2022-09-07T23:01:51.803Z,7.70
2022-09-07T23:05:56.728Z,6.90
2022-09-07T23:10:00.813Z,7.13
2022-09-07T23:14:06.490Z,7.43
2022-09-07T23:18:09.534Z,7.35
2022-09-07T23:22:14.291Z,7.35
2022-09-07T23:26:17.110Z,8.10
2022-09-07T23:30:19.903Z,8.57
2022-09-07T23:34:22.651Z,9.90
2022-09-07T23:38:27.320Z,8.88
2022-09-07T23:42:30.026Z,8.68
2022-09-07T23:46:32.816Z,9.00
2022-09-07T23:50:35.625Z,8.07
2022-09-07T23:54:39.762Z,8.57
2022-09-07T23:58:43.469Z,9.80
